createdAt,value
2022-10-14T00:12:28.241Z,39.73
2022-10-14T00:42:48.060Z,40.97
2022-10-14T01:08:18.165Z,39.87
2022-10-14T01:28:32.555Z,31.23
2022-10-14T01:48:08.555Z,31.20
2022-10-14T02:44:27.674Z,31.80
2022-10-14T03:09:46.775Z,29.67
2022-10-14T03:34:58.379Z,27.50
2022-10-14T04:25:59.080Z,28.33
2022-10-14T04:51:22.483Z,28.43
2022-10-14T06:07:27.628Z,27.63
2022-10-14T06:37:49.544Z,26.57
2022-10-14T07:38:36.088Z,27.03
2022-10-14T08:09:13.496Z,26.23
2022-10-14T09:30:02.152Z,21.53
2022-10-14T09:50:27.676Z,20.93
2022-10-14T10:15:38.279Z,19.43
2022-10-14T10:35:48.337Z,19.30
2022-10-14T11:01:18.449Z,19.07
2022-10-14T12:37:50.119Z,20.57
2022-10-14T13:12:49.123Z,19.43
2022-10-14T13:48:19.595Z,19.47
2022-10-14T14:13:39.880Z,19.60
2022-10-14T14:38:58.244Z,18.57
2022-10-14T15:04:48.063Z,19.13
2022-10-14T15:35:21.689Z,19.10
2022-10-14T16:26:00.377Z,24.27
2022-10-14T16:51:30.372Z,27.83
2022-10-14T17:16:25.674Z,28.87
2022-10-14T17:37:02.538Z,29.00
2022-10-14T18:17:39.465Z,31.83
2022-10-14T18:43:07.551Z,33.40
2022-10-14T19:13:33.627Z,34.77
2022-10-14T19:49:02.405Z,34.23
2022-10-14T20:18:50.936Z,33.67
2022-10-14T20:49:56.154Z,36.23
2022-10-14T21:19:42.795Z,40.63
2022-10-14T21:55:18.614Z,44.43
2022-10-14T22:21:08.599Z,50.37
2022-10-14T22:46:32.439Z,49.30
2022-10-14T23:37:12.287Z,51.57
